createdAt,value
2023-02-27T00:02:15.224Z,12.60
2023-02-27T00:04:44.019Z,11.90
2023-02-27T00:07:13.644Z,10.30
2023-02-27T00:09:50.091Z,10.30
2023-02-27T00:12:20.235Z,10.30
2023-02-27T00:14:49.199Z,10.70
2023-02-27T00:17:20.343Z,13.10
2023-02-27T00:19:53.431Z,12.60
2023-02-27T00:22:24.182Z,8.90
2023-02-27T00:25:00.514Z,13.60
2023-02-27T00:27:29.435Z,11.20
2023-02-27T00:29:59.753Z,10.80
2023-02-27T00:32:31.183Z,12.60
2023-02-27T00:35:00.300Z,12.60
2023-02-27T00:37:29.586Z,12.00
2023-02-27T00:39:58.783Z,10.10
2023-02-27T00:42:28.506Z,10.40
2023-02-27T00:44:57.487Z,11.00
2023-02-27T00:47:26.093Z,10.90
2023-02-27T00:49:56.387Z,14.30
2023-02-27T00:52:24.817Z,12.20
2023-02-27T00:54:53.868Z,13.70
2023-02-27T00:57:23.108Z,15.60
2023-02-27T00:59:52.467Z,12.70
2023-02-27T01:02:21.389Z,12.50
2023-02-27T01:04:49.652Z,9.60
2023-02-27T01:07:17.829Z,10.90
2023-02-27T01:09:46.286Z,11.80
2023-02-27T01:12:15.893Z,16.60
2023-02-27T01:14:45.849Z,11.60
2023-02-27T01:17:19.614Z,13.70
2023-02-27T01:19:48.671Z,11.20
2023-02-27T01:22:17.506Z,12.30
2023-02-27T01:24:47.550Z,17.70
2023-02-27T01:27:18.352Z,11.00
2023-02-27T01:29:50.958Z,13.50
2023-02-27T01:32:20.247Z,17.40
2023-02-27T01:34:48.896Z,12.20
2023-02-27T01:37:18.521Z,14.60
2023-02-27T01:39:47.927Z,10.80
2023-02-27T01:42:20.574Z,13.40
2023-02-27T01:45:10.178Z,12.70
2023-02-27T01:47:44.733Z,9.70
2023-02-27T01:50:14.102Z,13.10
2023-02-27T01:52:44.632Z,11.30
2023-02-27T01:55:14.758Z,15.20
2023-02-27T01:57:44.666Z,13.70
2023-02-27T02:00:15.088Z,13.70
2023-02-27T02:02:51.151Z,11.60
2023-02-27T02:05:19.935Z,11.40
2023-02-27T02:07:51.996Z,9.50
2023-02-27T02:10:21.096Z,11.00
2023-02-27T02:12:49.892Z,10.80
2023-02-27T02:15:18.768Z,10.90
2023-02-27T02:18:01.279Z,20.60
2023-02-27T02:20:45.850Z,24.40
2023-02-27T02:23:44.323Z,15.70
2023-02-27T02:26:44.140Z,15.30
2023-02-27T02:30:03.839Z,12.00
2023-02-27T02:32:35.791Z,12.20
2023-02-27T02:35:26.389Z,14.50
2023-02-27T02:38:53.020Z,12.60
2023-02-27T02:41:48.955Z,7.60
2023-02-27T02:44:42.206Z,18.70
2023-02-27T02:47:30.979Z,11.90
2023-02-27T02:50:04.503Z,10.20
2023-02-27T02:52:46.256Z,5.20
2023-02-27T02:55:25.486Z,7.70
2023-02-27T02:58:03.940Z,9.50
2023-02-27T03:00:42.278Z,7.80
2023-02-27T03:03:15.518Z,8.10
2023-02-27T03:05:50.341Z,8.90
2023-02-27T03:08:21.504Z,12.30
2023-02-27T03:10:57.229Z,13.30
2023-02-27T03:13:37.007Z,6.40
2023-02-27T03:16:18.504Z,12.90
2023-02-27T03:18:57.076Z,49.60
2023-02-27T03:21:38.634Z,57.30
2023-02-27T03:24:09.512Z,38.90
2023-02-27T03:26:42.859Z,23.10
2023-02-27T03:29:15.979Z,15.60
2023-02-27T03:31:48.045Z,10.50
2023-02-27T03:34:19.902Z,8.00
2023-02-27T03:36:55.255Z,5.60
2023-02-27T03:39:25.467Z,8.00
2023-02-27T03:42:25.795Z,10.20
2023-02-27T03:45:39.128Z,6.60
2023-02-27T03:48:07.711Z,9.00
2023-02-27T03:50:36.605Z,9.10
2023-02-27T03:53:06.544Z,8.20
2023-02-27T03:55:36.968Z,7.70
2023-02-27T03:58:05.832Z,15.30
2023-02-27T04:00:54.668Z,16.50
2023-02-27T04:03:23.681Z,17.70
2023-02-27T04:05:52.704Z,38.20
2023-02-27T04:08:45.016Z,36.90
2023-02-27T04:11:53.942Z,62.20
2023-02-27T04:14:45.358Z,92.60
2023-02-27T04:17:24.497Z,83.70
2023-02-27T04:20:08.948Z,106.30
2023-02-27T04:22:39.660Z,135.80
2023-02-27T04:28:29.379Z,91.30
2023-02-27T04:31:07.066Z,127.30
2023-02-27T04:33:48.785Z,146.20
2023-02-27T04:36:26.366Z,134.60
2023-02-27T04:39:08.873Z,60.30
2023-02-27T04:41:39.413Z,51.30
2023-02-27T04:44:08.545Z,82.10
2023-02-27T04:46:39.538Z,89.70
2023-02-27T04:49:30.046Z,95.10
2023-02-27T04:52:02.861Z,105.20
2023-02-27T04:54:47.171Z,71.60
2023-02-27T04:57:19.116Z,58.70
2023-02-27T04:59:50.539Z,47.80
2023-02-27T05:02:25.573Z,34.80
2023-02-27T05:04:57.478Z,31.70
2023-02-27T05:07:30.415Z,95.40
2023-02-27T05:10:02.188Z,75.00
2023-02-27T05:12:55.629Z,56.30
2023-02-27T05:18:29.525Z,11.80
2023-02-27T05:21:15.099Z,13.90
2023-02-27T05:24:06.658Z,13.00
2023-02-27T05:27:01.114Z,21.60
2023-02-27T05:29:45.659Z,28.10
2023-02-27T05:32:27.299Z,31.10
2023-02-27T05:35:07.673Z,106.80
2023-02-27T05:37:39.155Z,61.60
2023-02-27T05:40:08.967Z,74.20
2023-02-27T05:42:41.194Z,61.10
2023-02-27T05:45:12.162Z,66.50
2023-02-27T05:47:42.598Z,84.90
2023-02-27T05:50:14.714Z,65.10
2023-02-27T05:52:43.461Z,90.00
2023-02-27T05:55:28.214Z,124.80
2023-02-27T05:57:59.883Z,71.30
2023-02-27T06:00:41.500Z,50.80
2023-02-27T06:03:10.427Z,27.20
2023-02-27T06:05:41.195Z,30.10
2023-02-27T06:08:10.829Z,36.80
2023-02-27T06:10:44.093Z,21.80
2023-02-27T06:13:13.283Z,19.00
2023-02-27T06:15:41.969Z,14.70
2023-02-27T06:18:15.378Z,13.50
2023-02-27T06:20:45.427Z,12.30
2023-02-27T06:23:14.388Z,14.30
2023-02-27T06:25:44.302Z,21.20
2023-02-27T06:28:13.124Z,17.70
2023-02-27T06:30:42.106Z,37.10
2023-02-27T06:33:12.788Z,30.60
2023-02-27T06:35:45.311Z,22.30
2023-02-27T06:38:14.675Z,20.50
2023-02-27T06:40:44.075Z,14.50
2023-02-27T06:43:13.018Z,16.20
2023-02-27T06:45:42.059Z,15.70
2023-02-27T06:48:12.903Z,14.10
2023-02-27T06:50:41.992Z,17.00
2023-02-27T06:53:12.313Z,25.20
2023-02-27T06:55:42.435Z,23.50
2023-02-27T06:58:11.525Z,21.00
2023-02-27T07:00:40.623Z,20.50
2023-02-27T07:03:09.950Z,16.80
2023-02-27T07:05:38.818Z,15.60
2023-02-27T07:08:07.807Z,13.80
2023-02-27T07:10:37.722Z,16.10
2023-02-27T07:13:06.710Z,18.80
2023-02-27T07:15:39.006Z,21.70
2023-02-27T07:18:07.858Z,15.90
2023-02-27T07:20:36.666Z,16.50
2023-02-27T07:23:05.473Z,17.40
2023-02-27T07:25:34.660Z,17.20
2023-02-27T07:28:05.435Z,14.30
2023-02-27T07:30:34.479Z,18.50
2023-02-27T07:33:03.391Z,21.00
2023-02-27T07:35:32.462Z,21.50
2023-02-27T07:38:01.638Z,14.70
2023-02-27T07:40:31.162Z,12.10
2023-02-27T07:43:01.183Z,12.10
2023-02-27T07:45:31.098Z,17.70
2023-02-27T07:48:00.600Z,13.90
2023-02-27T07:50:30.816Z,20.50
2023-02-27T07:52:59.724Z,44.80
2023-02-27T07:55:28.500Z,19.90
2023-02-27T07:58:03.980Z,18.20
2023-02-27T08:00:32.910Z,21.80
2023-02-27T08:03:02.207Z,22.90
2023-02-27T08:05:33.587Z,17.90
2023-02-27T08:08:02.890Z,19.30
2023-02-27T08:10:37.000Z,17.00
2023-02-27T08:13:06.094Z,15.90
2023-02-27T08:15:35.190Z,16.30
2023-02-27T08:18:04.022Z,20.90
2023-02-27T08:20:33.487Z,19.30
2023-02-27T08:23:02.170Z,16.10
2023-02-27T08:25:31.568Z,16.00
2023-02-27T08:28:00.563Z,15.10
2023-02-27T08:30:29.658Z,15.60
2023-02-27T08:32:58.749Z,19.90
2023-02-27T08:35:27.843Z,19.10
2023-02-27T08:37:56.733Z,14.70
2023-02-27T08:40:25.526Z,17.40
2023-02-27T08:42:54.251Z,21.50
2023-02-27T08:45:23.301Z,26.20
2023-02-27T08:47:53.123Z,20.30
2023-02-27T08:50:23.334Z,19.00
2023-02-27T08:52:52.021Z,19.00
2023-02-27T08:55:21.641Z,16.90
2023-02-27T08:57:51.756Z,24.70
2023-02-27T09:00:21.770Z,20.30
2023-02-27T09:02:51.264Z,21.80
2023-02-27T09:05:20.282Z,19.60
2023-02-27T09:07:49.475Z,22.40
2023-02-27T09:10:19.172Z,22.90
2023-02-27T09:12:52.375Z,26.90
2023-02-27T09:15:21.250Z,25.70
2023-02-27T09:17:50.387Z,18.40
2023-02-27T09:20:19.335Z,23.00
2023-02-27T09:22:48.741Z,28.50
2023-02-27T09:25:17.423Z,28.80
2023-02-27T09:27:46.421Z,21.60
2023-02-27T09:30:16.340Z,27.90
2023-02-27T09:32:46.000Z,26.20
2023-02-27T09:35:18.000Z,18.80
2023-02-27T09:37:47.405Z,23.60
2023-02-27T09:40:29.608Z,19.70
2023-02-27T09:43:04.611Z,24.10
2023-02-27T09:45:39.630Z,24.90
2023-02-27T09:48:27.204Z,25.50
2023-02-27T09:50:56.319Z,24.80
2023-02-27T09:53:27.441Z,24.10
2023-02-27T09:55:57.966Z,21.00
2023-02-27T09:58:30.851Z,17.80
2023-02-27T10:01:07.012Z,32.50
2023-02-27T10:04:06.006Z,17.20
2023-02-27T10:07:04.127Z,16.20
2023-02-27T10:09:39.941Z,18.70
2023-02-27T10:12:36.782Z,23.80
2023-02-27T10:15:27.487Z,30.00
2023-02-27T10:18:09.947Z,27.00
2023-02-27T10:20:58.751Z,24.30
2023-02-27T10:23:37.885Z,26.10
2023-02-27T10:26:06.989Z,33.80
2023-02-27T10:28:35.765Z,29.30
2023-02-27T10:31:20.712Z,21.50
2023-02-27T10:33:50.340Z,27.30
2023-02-27T10:36:32.479Z,22.50
2023-02-27T10:39:06.602Z,22.00
2023-02-27T10:41:36.500Z,21.80
2023-02-27T10:44:06.201Z,26.60
2023-02-27T10:46:35.841Z,23.60
2023-02-27T10:49:20.050Z,24.00
2023-02-27T10:52:13.496Z,22.40
2023-02-27T10:54:43.303Z,17.90
2023-02-27T10:57:31.547Z,22.00
2023-02-27T11:00:05.419Z,23.80
2023-02-27T11:02:40.081Z,20.90
2023-02-27T11:05:37.242Z,22.70
2023-02-27T11:08:27.190Z,28.60
2023-02-27T11:11:04.827Z,26.00
2023-02-27T11:13:41.034Z,28.10
2023-02-27T11:16:22.738Z,27.80
2023-02-27T11:18:54.741Z,27.10
2023-02-27T11:21:29.487Z,39.00
2023-02-27T11:24:03.878Z,30.10
2023-02-27T11:26:39.439Z,36.90
2023-02-27T11:29:18.240Z,37.70
2023-02-27T11:32:02.985Z,30.30
2023-02-27T11:34:33.028Z,35.10
2023-02-27T11:37:07.695Z,39.30
2023-02-27T11:39:38.494Z,29.60
2023-02-27T11:42:17.371Z,24.60
2023-02-27T11:45:10.220Z,32.70
2023-02-27T11:47:39.652Z,32.50
2023-02-27T11:50:41.134Z,28.60
2023-02-27T11:53:47.898Z,28.90
2023-02-27T11:56:25.746Z,29.70
2023-02-27T11:58:57.522Z,31.50
2023-02-27T12:01:58.042Z,36.20
2023-02-27T12:04:48.075Z,31.90
2023-02-27T12:07:19.634Z,28.80
2023-02-27T12:10:04.447Z,29.90
2023-02-27T12:12:40.246Z,24.10
2023-02-27T12:15:14.666Z,31.80
2023-02-27T12:17:50.325Z,30.50
2023-02-27T12:20:59.452Z,28.30
2023-02-27T12:23:50.259Z,32.50
2023-02-27T12:26:32.895Z,27.70
2023-02-27T12:29:36.571Z,28.60
2023-02-27T12:32:21.572Z,26.70
2023-02-27T12:35:19.200Z,25.90
2023-02-27T12:37:48.355Z,28.80
2023-02-27T12:40:18.606Z,30.90
2023-02-27T12:43:12.395Z,42.20
2023-02-27T12:45:50.666Z,27.10
2023-02-27T12:48:45.806Z,32.80
2023-02-27T12:51:36.304Z,37.30
2023-02-27T12:54:16.348Z,26.60
2023-02-27T12:56:54.354Z,22.30
2023-02-27T13:00:08.732Z,27.10
2023-02-27T13:03:10.380Z,26.60
2023-02-27T13:08:38.467Z,34.80
2023-02-27T13:11:17.522Z,30.20
2023-02-27T13:13:56.212Z,24.80
2023-02-27T13:16:37.883Z,32.60
2023-02-27T13:19:14.579Z,29.80
2023-02-27T13:21:51.706Z,23.80
2023-02-27T13:24:24.170Z,30.10
2023-02-27T13:27:20.977Z,29.00
2023-02-27T13:30:01.747Z,26.20
2023-02-27T13:32:53.487Z,26.10
2023-02-27T13:35:29.882Z,29.10
2023-02-27T13:38:02.741Z,43.40
2023-02-27T13:40:32.143Z,33.00
2023-02-27T13:43:31.197Z,26.50
2023-02-27T13:46:05.775Z,28.80
2023-02-27T13:48:35.248Z,26.80
2023-02-27T13:51:04.379Z,27.50
2023-02-27T13:53:32.984Z,27.10
2023-02-27T13:56:22.843Z,27.00
2023-02-27T13:58:51.596Z,28.60
2023-02-27T14:01:24.106Z,22.20
2023-02-27T14:03:57.022Z,21.00
2023-02-27T14:06:26.622Z,25.40
2023-02-27T14:09:12.538Z,20.60
2023-02-27T14:11:55.264Z,18.70
2023-02-27T14:14:57.717Z,20.20
2023-02-27T14:17:37.179Z,10.90
2023-02-27T14:20:19.795Z,16.00
2023-02-27T14:23:13.158Z,12.10
2023-02-27T14:25:54.333Z,15.70
2023-02-27T14:28:42.881Z,29.70
2023-02-27T14:31:36.962Z,11.50
2023-02-27T14:34:06.573Z,14.70
2023-02-27T14:36:39.864Z,14.70
2023-02-27T14:39:19.568Z,12.80
2023-02-27T14:42:04.514Z,18.50
2023-02-27T14:44:41.995Z,17.70
2023-02-27T14:47:20.222Z,15.30
2023-02-27T14:49:49.202Z,24.20
2023-02-27T14:52:20.772Z,25.10
2023-02-27T14:54:50.514Z,24.70
2023-02-27T14:57:25.172Z,24.20
2023-02-27T14:59:55.511Z,20.20
2023-02-27T15:02:32.113Z,17.30
2023-02-27T15:05:01.793Z,14.00
2023-02-27T15:07:32.603Z,13.30
2023-02-27T15:10:06.138Z,11.90
2023-02-27T15:12:39.698Z,16.50
2023-02-27T15:15:10.864Z,9.80
2023-02-27T15:17:41.686Z,9.80
2023-02-27T15:20:37.118Z,9.90
2023-02-27T15:23:28.820Z,7.60
2023-02-27T15:28:30.906Z,15.60
2023-02-27T15:30:59.933Z,18.80
2023-02-27T15:33:30.973Z,18.40
2023-02-27T15:36:00.122Z,16.10
2023-02-27T15:38:35.043Z,18.90
2023-02-27T15:41:04.045Z,19.60
2023-02-27T15:43:33.149Z,15.20
2023-02-27T15:46:02.166Z,11.50
2023-02-27T15:48:31.234Z,14.30
2023-02-27T15:51:01.390Z,13.70
2023-02-27T15:53:31.167Z,15.20
2023-02-27T15:56:01.806Z,13.70
2023-02-27T15:59:00.212Z,18.10
2023-02-27T16:01:41.228Z,16.30
2023-02-27T16:04:23.495Z,10.40
2023-02-27T16:07:03.668Z,18.00
2023-02-27T16:09:34.145Z,19.20
2023-02-27T16:12:31.911Z,10.90
2023-02-27T16:15:22.731Z,6.20
2023-02-27T16:18:06.966Z,6.50
2023-02-27T16:20:55.205Z,8.00
2023-02-27T16:23:29.239Z,8.70
2023-02-27T16:26:08.637Z,13.00
2023-02-27T16:29:07.438Z,10.00
2023-02-27T16:31:39.146Z,6.80
2023-02-27T16:34:17.115Z,7.70
2023-02-27T16:37:04.245Z,7.00
2023-02-27T16:39:34.028Z,7.00
2023-02-27T16:42:02.830Z,9.10
2023-02-27T16:44:31.704Z,6.10
2023-02-27T16:47:02.442Z,8.40
2023-02-27T16:49:33.501Z,8.50
2023-02-27T16:52:03.544Z,10.80
2023-02-27T16:54:32.595Z,9.20
2023-02-27T16:57:01.492Z,12.70
2023-02-27T16:59:35.322Z,16.40
2023-02-27T17:02:06.523Z,17.10
2023-02-27T17:09:39.142Z,13.80
2023-02-27T17:12:11.130Z,11.60
2023-02-27T17:14:40.950Z,13.80
2023-02-27T17:17:11.683Z,10.30
2023-02-27T17:19:40.340Z,8.30
2023-02-27T17:22:09.746Z,9.90
2023-02-27T17:24:39.327Z,6.80
2023-02-27T17:27:08.858Z,5.90
2023-02-27T17:29:39.076Z,6.40
2023-02-27T17:32:09.225Z,7.50
2023-02-27T17:34:42.391Z,8.20
2023-02-27T17:37:12.096Z,7.80
2023-02-27T17:39:41.609Z,6.50
2023-02-27T17:42:12.956Z,8.70
2023-02-27T17:44:44.006Z,6.60
2023-02-27T17:47:15.560Z,6.30
2023-02-27T17:49:44.718Z,9.00
2023-02-27T17:52:14.190Z,7.10
2023-02-27T17:54:44.055Z,8.30
2023-02-27T17:57:14.235Z,7.80
2023-02-27T17:59:44.401Z,7.50
2023-02-27T18:02:14.304Z,6.00
2023-02-27T18:04:43.100Z,6.50
2023-02-27T18:07:12.130Z,5.90
2023-02-27T18:09:42.445Z,5.70
2023-02-27T18:12:11.354Z,8.00
2023-02-27T18:14:45.403Z,7.40
2023-02-27T18:17:14.506Z,7.00
2023-02-27T18:19:45.180Z,8.10
2023-02-27T18:22:17.151Z,15.50
2023-02-27T18:24:46.601Z,7.60
2023-02-27T18:27:22.558Z,5.80
2023-02-27T18:29:51.698Z,8.40
2023-02-27T18:32:21.293Z,8.00
2023-02-27T18:34:52.105Z,10.70
2023-02-27T18:37:20.992Z,22.20
2023-02-27T18:39:51.209Z,24.60
2023-02-27T18:42:24.202Z,15.60
2023-02-27T18:44:53.422Z,13.00
2023-02-27T18:47:22.385Z,14.80
2023-02-27T18:49:51.811Z,10.10
2023-02-27T18:52:20.472Z,10.10
2023-02-27T18:54:49.476Z,11.20
2023-02-27T18:57:18.686Z,16.30
2023-02-27T18:59:49.293Z,11.40
2023-02-27T19:02:20.042Z,26.40
2023-02-27T19:04:49.264Z,16.30
2023-02-27T19:07:26.214Z,16.90
2023-02-27T19:09:58.114Z,9.30
2023-02-27T19:12:29.826Z,13.20
2023-02-27T19:15:09.166Z,12.00
2023-02-27T19:17:38.874Z,12.40
2023-02-27T19:20:14.618Z,10.70
2023-02-27T19:22:43.410Z,11.30
2023-02-27T19:25:13.117Z,14.50
2023-02-27T19:27:44.979Z,12.80
2023-02-27T19:30:14.789Z,13.20
2023-02-27T19:32:43.982Z,13.50
2023-02-27T19:35:15.438Z,11.30
2023-02-27T19:37:48.929Z,14.10
2023-02-27T19:40:17.848Z,16.70
2023-02-27T19:42:47.125Z,19.90
2023-02-27T19:45:16.344Z,20.20
2023-02-27T19:47:47.173Z,15.70
2023-02-27T19:50:16.586Z,20.60
2023-02-27T19:52:46.577Z,17.00
2023-02-27T19:55:16.296Z,15.60
2023-02-27T19:57:46.391Z,16.90
2023-02-27T20:00:16.834Z,13.30
2023-02-27T20:02:45.939Z,21.60
2023-02-27T20:05:14.814Z,18.80
2023-02-27T20:07:44.017Z,20.60
2023-02-27T20:10:16.518Z,24.60
2023-02-27T20:12:45.603Z,20.50
2023-02-27T20:15:15.800Z,26.40
2023-02-27T20:17:46.871Z,21.70
2023-02-27T20:20:15.841Z,23.40
2023-02-27T20:22:47.721Z,20.00
2023-02-27T20:25:16.731Z,29.10
2023-02-27T20:27:46.702Z,25.50
2023-02-27T20:30:16.419Z,24.90
2023-02-27T20:32:46.498Z,27.00
2023-02-27T20:35:16.342Z,25.70
2023-02-27T20:37:45.132Z,26.20
2023-02-27T20:40:14.445Z,23.10
2023-02-27T20:42:43.324Z,22.60
2023-02-27T20:45:12.728Z,26.10
2023-02-27T20:47:42.142Z,23.30
2023-02-27T20:50:11.947Z,32.80
2023-02-27T20:52:40.835Z,26.80
2023-02-27T20:55:15.574Z,29.50
2023-02-27T20:57:44.381Z,24.60
2023-02-27T21:00:14.267Z,28.40
2023-02-27T21:02:44.893Z,24.20
2023-02-27T21:05:14.019Z,23.90
2023-02-27T21:07:46.263Z,22.40
2023-02-27T21:10:15.574Z,22.70
2023-02-27T21:12:46.095Z,23.00
2023-02-27T21:15:14.965Z,24.90
2023-02-27T21:17:44.586Z,27.20
2023-02-27T21:20:15.126Z,24.80
2023-02-27T21:22:45.258Z,18.70
2023-02-27T21:25:16.371Z,30.00
2023-02-27T21:27:47.427Z,27.50
2023-02-27T21:30:16.765Z,23.40
2023-02-27T21:32:46.625Z,25.10
2023-02-27T21:35:16.659Z,23.60
2023-02-27T21:37:46.964Z,26.60
2023-02-27T21:40:16.314Z,33.20
2023-02-27T21:42:45.257Z,29.00
2023-02-27T21:45:14.661Z,32.80
2023-02-27T21:47:43.356Z,30.30
2023-02-27T21:50:15.542Z,29.80
2023-02-27T21:52:48.496Z,31.40
2023-02-27T21:55:17.694Z,22.80
2023-02-27T21:57:46.275Z,26.30
2023-02-27T22:00:16.400Z,27.20
2023-02-27T22:02:45.286Z,26.40
2023-02-27T22:05:14.484Z,28.00
2023-02-27T22:07:43.581Z,23.00
2023-02-27T22:10:15.372Z,27.90
2023-02-27T22:12:46.071Z,24.00
2023-02-27T22:15:15.264Z,20.50
2023-02-27T22:17:44.362Z,22.50
2023-02-27T22:20:13.775Z,23.60
2023-02-27T22:22:43.389Z,27.50
2023-02-27T22:25:12.566Z,21.10
2023-02-27T22:27:41.490Z,25.00
2023-02-27T22:30:11.810Z,22.10
2023-02-27T22:32:40.736Z,25.60
2023-02-27T22:35:09.975Z,21.10
2023-02-27T22:37:38.968Z,26.20
2023-02-27T22:40:08.807Z,24.20
2023-02-27T22:42:38.628Z,24.00
2023-02-27T22:45:08.706Z,25.10
2023-02-27T22:47:37.393Z,25.70
2023-02-27T22:50:07.102Z,22.40
2023-02-27T22:52:37.328Z,26.70
2023-02-27T22:55:12.055Z,23.40
2023-02-27T22:57:43.196Z,24.50
2023-02-27T23:00:12.903Z,26.40
2023-02-27T23:02:42.612Z,26.90
2023-02-27T23:05:16.530Z,28.90
2023-02-27T23:07:47.562Z,28.80
2023-02-27T23:10:17.509Z,29.00
2023-02-27T23:12:46.776Z,24.80
2023-02-27T23:15:15.987Z,29.80
2023-02-27T23:17:56.564Z,32.30
2023-02-27T23:20:36.798Z,27.40
2023-02-27T23:23:06.810Z,28.70
2023-02-27T23:25:37.271Z,27.20
2023-02-27T23:28:06.135Z,28.20
2023-02-27T23:30:35.530Z,23.70
2023-02-27T23:33:04.346Z,29.00
2023-02-27T23:35:33.943Z,26.40
2023-02-27T23:38:03.428Z,23.20
2023-02-27T23:40:32.639Z,24.90
2023-02-27T23:43:02.537Z,25.50
2023-02-27T23:45:32.904Z,28.40
2023-02-27T23:48:01.958Z,21.90
2023-02-27T23:50:32.803Z,24.30
2023-02-27T23:53:01.588Z,23.20
2023-02-27T23:55:31.806Z,21.00
2023-02-27T23:58:02.846Z,22.80
